Time;durP1;ratioP1;P1;durP2;ratioP2;P2;SDS_P1;SDS_P2;PMS_P1;PMS_P2;Temp;Humidity;BMP_temperature;BMP_pressure;BME280_temperature;BME280_humidity;BME280_pressure;Samples;Min_cycle;Max_cycle;Signal;HPM_P1;HPM_P2
2022/11/11 00:01:02;;;;;;;3.38;2.35;;;6.60;99.90;;;;;;5028460;28;20089;-79
2022/11/11 00:03:28;;;;;;;2.20;1.80;;;6.50;99.90;;;;;;5052552;28;20073;-80
2022/11/11 00:05:54;;;;;;;2.72;1.55;;;6.50;99.90;;;;;;5052991;28;20029;-80
2022/11/11 00:08:19;;;;;;;3.25;2.20;;;6.50;99.90;;;;;;5035849;28;20053;-79
2022/11/11 00:10:45;;;;;;;2.70;2.10;;;6.40;99.90;;;;;;5029014;28;20033;-79
2022/11/11 00:13:11;;;;;;;3.63;1.90;;;6.40;99.90;;;;;;5048688;28;20097;-81
2022/11/11 00:15:38;;;;;;;2.10;1.60;;;6.40;99.90;;;;;;5034474;28;20091;-79
2022/11/11 00:26:19;;;;;;;1.92;1.63;;;6.40;99.90;;;;;;5052516;28;20033;-80
2022/11/11 00:28:44;;;;;;;3.78;1.90;;;6.30;99.90;;;;;;5052131;28;20029;-80
2022/11/11 00:31:12;;;;;;;3.63;2.38;;;6.30;99.90;;;;;;5051606;28;20033;-80
2022/11/11 00:33:38;;;;;;;2.45;1.80;;;6.30;99.90;;;;;;5048765;28;20021;-79
2022/11/11 00:36:05;;;;;;;2.22;2.00;;;6.30;99.90;;;;;;5044316;28;20018;-80
2022/11/11 00:38:51;;;;;;;2.22;1.70;;;6.30;99.90;;;;;;5039187;28;20029;-79
2022/11/11 00:41:22;;;;;;;2.85;1.70;;;6.30;99.90;;;;;;5032762;28;20033;-80
2022/11/11 00:43:48;;;;;;;2.20;2.00;;;6.30;99.90;;;;;;5050217;28;20052;-79
2022/11/11 00:51:45;;;;;;;2.03;1.60;;;6.30;99.90;;;;;;5031336;28;20100;-82
2022/11/11 00:54:11;;;;;;;1.80;1.55;;;6.30;99.90;;;;;;5031108;28;20046;-80
2022/11/11 00:56:37;;;;;;;2.83;1.27;;;6.30;99.90;;;;;;5031263;28;20042;-81
2022/11/11 00:59:07;;;;;;;1.63;1.50;;;6.20;99.90;;;;;;5014087;28;20041;-81
2022/11/11 01:01:35;;;;;;;1.88;1.45;;;6.20;99.90;;;;;;5031594;28;20014;-81
2022/11/11 01:04:01;;;;;;;1.80;1.65;;;6.10;99.90;;;;;;5015147;28;20029;-81
2022/11/11 01:06:27;;;;;;;2.97;1.70;;;6.10;99.90;;;;;;5040179;28;20017;-81
2022/11/11 01:08:52;;;;;;;2.83;1.80;;;6.10;99.90;;;;;;5042821;28;20026;-82
2022/11/11 01:14:32;;;;;;;2.40;1.80;;;6.10;99.90;;;;;;5020637;28;20152;-81
2022/11/11 01:16:57;;;;;;;2.10;1.85;;;6.00;99.90;;;;;;5035581;28;20137;-81
2022/11/11 01:19:23;;;;;;;2.78;2.20;;;6.00;99.90;;;;;;5030797;28;20026;-83
2022/11/11 01:21:49;;;;;;;2.88;2.13;;;6.10;99.90;;;;;;5027223;28;20034;-80
2022/11/11 01:24:14;;;;;;;2.20;1.88;;;6.00;99.90;;;;;;5003383;28;20034;-81
2022/11/11 01:26:40;;;;;;;3.22;1.58;;;6.00;99.90;;;;;;5031830;28;20057;-81
2022/11/11 01:29:05;;;;;;;2.67;1.58;;;6.10;99.90;;;;;;5032044;28;20053;-81
2022/11/11 01:31:31;;;;;;;2.92;1.48;;;6.00;99.90;;;;;;5013811;28;20022;-81
2022/11/11 01:33:58;;;;;;;3.13;1.65;;;6.00;99.90;;;;;;5031929;28;20054;-81
2022/11/11 01:36:26;;;;;;;1.55;1.27;;;6.00;99.90;;;;;;5034969;28;20082;-81
2022/11/11 01:38:54;;;;;;;1.50;1.40;;;6.00;99.90;;;;;;5038539;28;20025;-81
2022/11/11 01:41:33;;;;;;;3.25;1.38;;;6.00;99.90;;;;;;5035309;28;20025;-81
2022/11/11 01:44:11;;;;;;;3.67;1.88;;;6.00;99.90;;;;;;5051731;28;20034;-81
2022/11/11 01:46:46;;;;;;;2.08;1.45;;;6.00;99.90;;;;;;5048879;28;20029;-80
2022/11/11 01:49:41;;;;;;;1.77;1.63;;;6.00;99.90;;;;;;5049956;28;20029;-80
2022/11/11 01:52:30;;;;;;;1.73;1.20;;;6.00;99.90;;;;;;5051125;28;20029;-80
2022/11/11 01:55:17;;;;;;;1.35;1.20;;;6.00;99.90;;;;;;5049673;28;20117;-80
2022/11/11 01:58:01;;;;;;;2.15;1.20;;;5.90;99.90;;;;;;5047603;28;20115;-79
2022/11/11 02:00:27;;;;;;;0.93;0.90;;;5.90;99.90;;;;;;5050075;28;20025;-81
2022/11/11 02:03:13;;;;;;;1.63;1.15;;;5.90;99.90;;;;;;5032165;28;20026;-80
2022/11/11 02:05:42;;;;;;;1.75;1.13;;;5.90;99.90;;;;;;5031907;28;20117;-80
2022/11/11 02:08:33;;;;;;;1.35;1.25;;;5.90;99.90;;;;;;5045666;28;20037;-80
2022/11/11 02:11:01;;;;;;;1.73;1.10;;;5.90;99.90;;;;;;5029947;28;20030;-80
2022/11/11 02:16:11;;;;;;;1.55;1.20;;;5.90;99.90;;;;;;5033245;28;20040;-81
2022/11/11 02:18:36;;;;;;;0.98;0.98;;;5.90;99.90;;;;;;5049126;28;20021;-80
2022/11/11 02:21:03;;;;;;;1.55;1.10;;;5.90;99.90;;;;;;5050113;28;20033;-80
2022/11/11 02:23:59;;;;;;;2.42;1.30;;;5.90;99.90;;;;;;5049618;28;20087;-80
2022/11/11 02:26:26;;;;;;;1.80;1.10;;;5.90;99.90;;;;;;5045300;28;20010;-80
2022/11/11 02:28:53;;;;;;;1.75;1.20;;;5.80;99.90;;;;;;5030179;28;20029;-80
2022/11/11 02:31:24;;;;;;;1.67;1.15;;;5.80;99.90;;;;;;5011946;28;20073;-80
2022/11/11 02:33:50;;;;;;;2.17;1.30;;;5.80;99.90;;;;;;5029636;28;20041;-79
2022/11/11 02:36:16;;;;;;;2.28;1.33;;;5.80;99.90;;;;;;5037041;28;20025;-79
2022/11/11 02:38:42;;;;;;;1.90;1.35;;;5.80;99.90;;;;;;5044637;28;20018;-79
2022/11/11 02:43:52;;;;;;;2.55;1.23;;;5.80;99.90;;;;;;5036040;28;20033;-79
2022/11/11 02:46:18;;;;;;;3.92;1.08;;;5.80;99.90;;;;;;5034440;28;20077;-79
2022/11/11 02:48:43;;;;;;;2.40;1.02;;;5.80;99.90;;;;;;5049301;28;20033;-80
2022/11/11 02:51:09;;;;;;;3.38;1.77;;;5.80;99.90;;;;;;5053415;28;20030;-81
2022/11/11 02:53:35;;;;;;;1.30;1.20;;;5.80;99.90;;;;;;5052875;28;20025;-80
2022/11/11 02:56:00;;;;;;;1.42;1.33;;;5.70;99.90;;;;;;5052760;28;20025;-80
2022/11/11 02:58:26;;;;;;;1.98;1.35;;;5.70;99.90;;;;;;5027497;28;20034;-80
2022/11/11 03:00:51;;;;;;;1.45;1.30;;;5.70;99.90;;;;;;5034155;28;20037;-80
2022/11/11 03:03:17;;;;;;;1.83;1.38;;;5.60;99.90;;;;;;5037228;28;20111;-80
2022/11/11 03:05:43;;;;;;;3.17;1.80;;;5.60;99.90;;;;;;5038278;28;20038;-80
2022/11/11 03:08:08;;;;;;;4.70;1.77;;;5.60;99.90;;;;;;5046998;28;20029;-80
2022/11/11 03:10:34;;;;;;;1.63;1.48;;;5.60;99.90;;;;;;5039255;28;20094;-80
2022/11/11 03:13:00;;;;;;;1.60;1.50;;;5.60;99.90;;;;;;5042609;28;20025;-79
2022/11/11 03:15:25;;;;;;;1.92;1.30;;;5.60;99.90;;;;;;5059364;28;20017;-79
2022/11/11 03:17:51;;;;;;;2.05;1.33;;;5.60;99.90;;;;;;5059308;28;20026;-80
2022/11/11 03:23:05;;;;;;;5.18;1.67;;;5.60;99.90;;;;;;5038386;28;20044;-80
2022/11/11 03:25:38;;;;;;;3.47;1.40;;;5.60;99.90;;;;;;5037880;28;20133;-80
2022/11/11 03:28:12;;;;;;;2.70;2.10;;;5.60;99.90;;;;;;5039531;28;20022;-79
2022/11/11 03:30:43;;;;;;;1.60;1.48;;;5.60;99.90;;;;;;5032482;28;20013;-80
2022/11/11 03:33:09;;;;;;;2.22;1.10;;;5.50;99.90;;;;;;5059488;28;20113;-80
2022/11/11 03:35:35;;;;;;;2.70;1.48;;;5.50;99.90;;;;;;5052826;28;20040;-80
2022/11/11 03:40:47;;;;;;;1.73;1.27;;;5.40;99.90;;;;;;5050973;28;20064;-79
2022/11/11 03:43:14;;;;;;;1.90;1.40;;;5.50;99.90;;;;;;5050926;28;20029;-80
2022/11/11 03:45:41;;;;;;;1.73;1.30;;;5.50;99.90;;;;;;5051365;28;20021;-81
2022/11/11 03:48:07;;;;;;;2.03;1.20;;;5.50;99.90;;;;;;5053689;28;20073;-79
2022/11/11 03:50:33;;;;;;;3.80;1.55;;;5.50;99.90;;;;;;5046551;28;20026;-81
2022/11/11 03:52:59;;;;;;;1.80;1.60;;;5.50;99.90;;;;;;5039442;28;20033;-79
2022/11/11 03:55:25;;;;;;;1.85;1.10;;;5.50;99.90;;;;;;5051586;28;20040;-80
2022/11/11 03:57:51;;;;;;;1.50;1.40;;;5.50;99.90;;;;;;5050898;28;20028;-80
2022/11/11 04:00:20;;;;;;;2.03;1.40;;;5.50;99.90;;;;;;5030805;28;20133;-80
2022/11/11 04:11:12;;;;;;;2.78;1.73;;;5.40;99.90;;;;;;5031160;28;20707;-81
2022/11/11 04:16:27;;;;;;;1.70;1.20;;;5.40;99.90;;;;;;5031002;28;20126;-80
2022/11/11 04:21:43;;;;;;;2.20;1.40;;;5.30;99.90;;;;;;5039528;28;20402;-79
2022/11/11 04:26:57;;;;;;;7.00;1.60;;;5.30;99.90;;;;;;5050113;28;20048;-81
2022/11/11 04:29:28;;;;;;;2.83;1.52;;;5.20;99.90;;;;;;5048300;28;20021;-81
2022/11/11 04:35:06;;;;;;;1.63;1.08;;;5.20;99.90;;;;;;5048258;28;20040;-79
2022/11/11 04:37:34;;;;;;;1.25;1.15;;;5.20;99.90;;;;;;5049333;28;20025;-80
2022/11/11 04:42:45;;;;;;;1.38;1.23;;;5.20;99.90;;;;;;5030966;28;20445;-80
2022/11/11 04:45:27;;;;;;;1.65;1.20;;;5.20;99.90;;;;;;5030486;28;20042;-79
2022/11/11 04:47:58;;;;;;;2.13;1.40;;;5.20;99.90;;;;;;5030154;28;20517;-80
2022/11/11 04:50:27;;;;;;;1.02;0.95;;;5.20;99.90;;;;;;5036172;28;20573;-80
2022/11/11 04:52:52;;;;;;;0.85;0.85;;;5.10;99.90;;;;;;5042173;28;20462;-80
2022/11/11 04:58:03;;;;;;;2.28;1.60;;;5.10;99.90;;;;;;5050419;28;20028;-80
2022/11/11 05:00:28;;;;;;;1.10;1.00;;;5.20;99.90;;;;;;5045431;28;20041;-80
2022/11/11 05:11:08;;;;;;;1.25;1.15;;;5.20;99.90;;;;;;5042980;28;20037;-80
2022/11/11 05:22:05;;;;;;;2.47;1.10;;;5.10;99.90;;;;;;5041311;28;20039;-79
2022/11/11 05:27:15;;;;;;;2.30;1.35;;;5.10;99.90;;;;;;5050596;28;20029;-80
2022/11/11 05:29:40;;;;;;;2.72;1.25;;;5.10;99.90;;;;;;5050522;28;20026;-81
2022/11/11 05:32:07;;;;;;;1.20;1.10;;;5.10;99.90;;;;;;5039820;28;20022;-80
2022/11/11 05:34:33;;;;;;;1.27;1.17;;;5.10;99.90;;;;;;5020158;28;20114;-80
2022/11/11 05:37:04;;;;;;;1.00;1.00;;;5.10;99.90;;;;;;5028830;28;20030;-81
2022/11/11 05:39:30;;;;;;;1.13;1.03;;;5.10;99.90;;;;;;5029795;28;20037;-81
2022/11/11 05:41:56;;;;;;;2.42;1.30;;;5.10;99.90;;;;;;5034891;28;20034;-81
2022/11/11 05:44:21;;;;;;;1.45;1.25;;;5.10;99.90;;;;;;5032207;28;20045;-80
2022/11/11 05:46:47;;;;;;;1.50;1.35;;;5.10;99.90;;;;;;5050203;28;20025;-81
2022/11/11 05:49:15;;;;;;;2.58;0.90;;;5.10;99.90;;;;;;5049963;28;20113;-81
2022/11/11 05:51:44;;;;;;;1.75;1.35;;;5.10;99.90;;;;;;5014954;28;20025;-80
2022/11/11 05:54:10;;;;;;;1.55;1.30;;;5.10;99.90;;;;;;5048683;28;20033;-79
2022/11/11 05:56:36;;;;;;;1.02;0.90;;;5.00;99.90;;;;;;5049597;28;20052;-79
2022/11/11 05:59:02;;;;;;;1.17;0.93;;;5.00;99.90;;;;;;5049540;28;20068;-80
2022/11/11 06:01:28;;;;;;;2.22;1.20;;;5.00;99.90;;;;;;5029737;28;20052;-79
2022/11/11 06:03:53;;;;;;;1.15;1.05;;;5.00;99.90;;;;;;5033689;28;20828;-78
2022/11/11 06:06:19;;;;;;;0.63;0.63;;;5.00;99.90;;;;;;5039548;28;20028;-79
2022/11/11 06:08:45;;;;;;;1.75;1.10;;;5.00;99.90;;;;;;5022046;28;20052;-78
2022/11/11 06:11:10;;;;;;;1.10;0.93;;;5.00;99.90;;;;;;5041875;28;20021;-80
2022/11/11 06:13:36;;;;;;;1.48;1.17;;;5.00;99.90;;;;;;5039588;28;20053;-79
2022/11/11 06:16:03;;;;;;;1.48;1.13;;;5.00;99.90;;;;;;5049570;28;20083;-79
2022/11/11 06:18:29;;;;;;;2.47;1.08;;;5.10;99.90;;;;;;5050449;28;20474;-80
2022/11/11 06:20:55;;;;;;;1.20;1.05;;;5.00;99.90;;;;;;5047112;28;20052;-80
2022/11/11 06:23:22;;;;;;;1.52;1.20;;;5.00;99.90;;;;;;5024098;28;20030;-80
2022/11/11 06:28:32;;;;;;;3.67;1.55;;;5.00;99.90;;;;;;5040394;28;20101;-78
2022/11/11 06:30:58;;;;;;;2.28;1.85;;;5.00;99.90;;;;;;5035040;28;20026;-79
2022/11/11 06:33:24;;;;;;;2.40;1.85;;;5.00;99.90;;;;;;5032399;28;20038;-79
2022/11/11 06:35:50;;;;;;;2.05;1.30;;;5.10;99.90;;;;;;5025509;28;20032;-78
2022/11/11 06:38:16;;;;;;;2.58;1.50;;;5.10;99.90;;;;;;5013506;28;20021;-79
2022/11/11 06:40:42;;;;;;;1.67;1.55;;;5.20;99.90;;;;;;5048187;28;20018;-78
2022/11/11 06:43:08;;;;;;;2.25;1.23;;;5.20;99.90;;;;;;5050166;28;20526;-80
2022/11/11 06:45:35;;;;;;;1.17;1.05;;;5.30;99.90;;;;;;5033984;28;20059;-80
2022/11/11 06:48:01;;;;;;;2.85;1.40;;;5.40;99.90;;;;;;5053024;28;20463;-80
2022/11/11 06:50:28;;;;;;;1.10;1.10;;;5.40;99.90;;;;;;5052141;28;20046;-79
2022/11/11 06:52:54;;;;;;;1.17;1.08;;;5.50;99.90;;;;;;5048957;28;20026;-81
2022/11/11 06:55:20;;;;;;;2.35;1.20;;;5.60;99.90;;;;;;5050320;28;20029;-80
2022/11/11 06:57:46;;;;;;;1.27;1.00;;;5.70;99.90;;;;;;5049394;28;20021;-80
2022/11/11 07:00:13;;;;;;;1.27;0.88;;;5.80;99.90;;;;;;5046793;28;20038;-80
2022/11/11 07:02:38;;;;;;;1.38;1.08;;;5.90;99.90;;;;;;5026092;28;20039;-80
2022/11/11 07:05:05;;;;;;;2.03;1.38;;;6.00;99.90;;;;;;5047591;28;20045;-80
2022/11/11 07:07:30;;;;;;;1.35;1.05;;;6.00;99.90;;;;;;5046810;28;20040;-80
2022/11/11 07:09:56;;;;;;;2.42;1.23;;;6.10;99.90;;;;;;5039382;28;20331;-80
2022/11/11 07:12:22;;;;;;;2.55;1.67;;;6.10;99.90;;;;;;5036785;28;20022;-80
2022/11/11 07:14:48;;;;;;;4.13;2.50;;;6.20;99.90;;;;;;5036351;28;20025;-81
2022/11/11 07:17:14;;;;;;;1.92;1.73;;;6.20;99.90;;;;;;5040527;28;20067;-79
2022/11/11 07:19:39;;;;;;;4.15;1.70;;;6.20;99.90;;;;;;5045466;28;20125;-79
2022/11/11 07:22:05;;;;;;;2.65;1.75;;;6.20;99.90;;;;;;5042267;28;20043;-80
2022/11/11 07:24:31;;;;;;;7.30;2.13;;;6.30;99.90;;;;;;5044125;28;20045;-81
2022/11/11 07:26:58;;;;;;;3.20;1.67;;;6.30;99.90;;;;;;5025912;28;20041;-79
2022/11/11 07:29:24;;;;;;;3.80;1.98;;;6.30;99.90;;;;;;5047216;28;20030;-79
2022/11/11 07:31:50;;;;;;;5.30;1.75;;;6.30;99.90;;;;;;5030714;28;20047;-77
2022/11/11 07:34:16;;;;;;;4.45;1.75;;;6.40;99.90;;;;;;5046109;28;20021;-82
2022/11/11 07:36:41;;;;;;;4.50;2.70;;;6.40;99.90;;;;;;5046532;28;20039;-82
2022/11/11 07:39:07;;;;;;;4.18;2.63;;;6.30;99.90;;;;;;5026602;28;20049;-78
2022/11/11 07:41:33;;;;;;;2.92;2.53;;;6.40;99.90;;;;;;5047668;28;20025;-80
2022/11/11 07:43:58;;;;;;;2.97;2.05;;;6.40;99.90;;;;;;5027285;28;20431;-81
2022/11/11 07:46:24;;;;;;;7.75;2.33;;;6.50;99.90;;;;;;5044903;28;20030;-79
2022/11/11 07:48:50;;;;;;;5.35;2.58;;;6.60;99.90;;;;;;5045583;28;20017;-80
2022/11/11 07:51:16;;;;;;;3.63;2.20;;;6.60;99.90;;;;;;5050432;28;20045;-80
2022/11/11 07:53:41;;;;;;;3.85;2.00;;;6.60;99.90;;;;;;5045969;28;20026;-83
2022/11/11 07:56:07;;;;;;;3.72;2.00;;;6.70;99.90;;;;;;5043669;28;20053;-79
2022/11/11 07:58:33;;;;;;;3.70;2.00;;;6.80;99.90;;;;;;5028418;28;20040;-80
2022/11/11 08:00:59;;;;;;;2.28;1.70;;;6.90;99.90;;;;;;5025618;28;20034;-77
2022/11/11 08:03:25;;;;;;;3.60;2.00;;;7.00;99.90;;;;;;5011875;28;20018;-78
2022/11/11 08:06:20;;;;;;;2.40;1.60;;;7.20;99.90;;;;;;5047706;28;20045;-79
2022/11/11 08:08:46;;;;;;;2.28;1.80;;;7.40;99.90;;;;;;5046836;28;20014;-81
2022/11/11 08:11:13;;;;;;;2.13;1.90;;;7.60;99.90;;;;;;5050785;28;20017;-78
2022/11/11 08:13:39;;;;;;;2.05;1.17;;;7.80;99.90;;;;;;5050155;28;20100;-79
2022/11/11 08:16:15;;;;;;;10.38;2.28;;;7.90;99.90;;;;;;5048108;28;20264;-78
2022/11/11 08:18:41;;;;;;;4.85;1.90;;;7.90;99.90;;;;;;5048155;28;20113;-78
2022/11/11 08:21:07;;;;;;;2.30;1.65;;;8.00;99.90;;;;;;5051485;28;20033;-77
2022/11/11 08:23:33;;;;;;;2.42;1.23;;;8.10;99.90;;;;;;5055403;28;20034;-78
2022/11/11 08:26:03;;;;;;;2.83;1.55;;;8.20;99.90;;;;;;5052900;28;20064;-78
2022/11/11 08:28:31;;;;;;;3.60;2.20;;;8.30;99.90;;;;;;5050857;28;20025;-78
2022/11/11 08:30:58;;;;;;;5.20;2.25;;;8.50;99.90;;;;;;5030680;28;20026;-78
2022/11/11 08:33:27;;;;;;;4.05;2.05;;;8.50;99.90;;;;;;5013171;28;20054;-79
2022/11/11 08:35:53;;;;;;;5.05;2.00;;;8.50;99.90;;;;;;5028440;28;20030;-77
2022/11/11 08:38:20;;;;;;;10.05;2.53;;;8.50;99.90;;;;;;5027331;28;20025;-78
2022/11/11 08:40:46;;;;;;;3.42;2.20;;;8.50;99.90;;;;;;5029607;28;20486;-79
2022/11/11 08:43:12;;;;;;;9.13;2.75;;;8.50;99.90;;;;;;5048102;28;20128;-78
2022/11/11 08:45:38;;;;;;;11.80;3.05;;;8.40;99.90;;;;;;5028920;28;20025;-78
2022/11/11 08:48:04;;;;;;;6.47;2.70;;;8.40;99.90;;;;;;5042885;28;20028;-78
2022/11/11 08:50:30;;;;;;;5.88;2.60;;;8.50;99.80;;;;;;5029603;28;20026;-79
2022/11/11 08:52:56;;;;;;;5.80;2.25;;;8.60;99.80;;;;;;5011771;28;20089;-77
2022/11/11 08:55:22;;;;;;;2.97;2.08;;;8.70;99.70;;;;;;5010403;28;20455;-78
2022/11/11 08:57:47;;;;;;;3.83;2.40;;;8.90;99.40;;;;;;5028665;28;20132;-78
2022/11/11 09:00:14;;;;;;;4.03;2.10;;;9.00;99.00;;;;;;5039920;28;20033;-77
2022/11/11 09:02:39;;;;;;;5.32;2.22;;;9.20;98.60;;;;;;5030339;28;20097;-78
2022/11/11 09:05:05;;;;;;;3.53;2.17;;;9.30;98.30;;;;;;5020589;28;20049;-78
2022/11/11 09:07:31;;;;;;;6.43;2.15;;;9.30;97.70;;;;;;5028381;28;20033;-78
2022/11/11 09:09:57;;;;;;;3.58;2.25;;;9.40;97.50;;;;;;5032245;28;20053;-79
2022/11/11 09:12:23;;;;;;;4.13;1.92;;;9.50;97.30;;;;;;5043421;28;20033;-78
2022/11/11 09:14:48;;;;;;;3.83;2.00;;;9.80;97.10;;;;;;5043043;28;20044;-78
2022/11/11 09:17:15;;;;;;;3.13;1.67;;;10.20;96.60;;;;;;5043519;28;20029;-79
2022/11/11 09:19:41;;;;;;;2.72;1.48;;;10.60;95.80;;;;;;5028216;28;20045;-83
2022/11/11 09:22:07;;;;;;;2.72;1.70;;;10.90;94.40;;;;;;5028824;28;20029;-80
2022/11/11 09:24:33;;;;;;;1.88;1.30;;;11.20;93.70;;;;;;5010150;28;20397;-80
2022/11/11 09:26:59;;;;;;;2.53;1.35;;;11.40;92.90;;;;;;5029889;28;20426;-79
2022/11/11 09:29:24;;;;;;;2.30;1.13;;;11.60;92.50;;;;;;5049819;28;20064;-79
2022/11/11 09:31:50;;;;;;;1.33;1.13;;;11.80;92.00;;;;;;5033714;28;20037;-80
2022/11/11 09:34:16;;;;;;;1.67;1.10;;;12.10;91.40;;;;;;5019564;28;20029;-79
2022/11/11 09:36:42;;;;;;;3.10;1.13;;;12.20;90.50;;;;;;5022808;28;20025;-79
2022/11/11 09:39:08;;;;;;;2.08;1.52;;;12.10;90.10;;;;;;5030016;28;20093;-79
2022/11/11 09:41:41;;;;;;;2.67;1.52;;;12.20;88.70;;;;;;5044375;28;20098;-79
2022/11/11 09:44:30;;;;;;;2.15;1.10;;;12.00;88.60;;;;;;5039642;28;20112;-78
2022/11/11 09:47:27;;;;;;;1.75;1.20;;;12.00;88.60;;;;;;5043696;28;20084;-79
2022/11/11 09:50:04;;;;;;;1.00;0.85;;;12.10;88.40;;;;;;4975297;28;20050;-80
2022/11/11 09:52:45;;;;;;;1.23;1.13;;;12.30;88.00;;;;;;5042461;28;20017;-78
2022/11/11 09:55:17;;;;;;;1.65;1.17;;;12.40;87.50;;;;;;5016462;28;20038;-79
2022/11/11 09:57:49;;;;;;;1.10;1.00;;;12.50;86.50;;;;;;5026568;28;20122;-80
2022/11/11 10:00:27;;;;;;;1.33;1.15;;;12.50;85.90;;;;;;5012431;28;20010;-79
2022/11/11 10:02:56;;;;;;;1.67;1.10;;;12.60;85.60;;;;;;5027433;28;20017;-79
2022/11/11 10:05:31;;;;;;;0.65;0.65;;;12.60;85.30;;;;;;5013631;28;20022;-80
2022/11/11 10:08:20;;;;;;;0.82;0.80;;;12.50;85.20;;;;;;5045154;28;20041;-79
2022/11/11 10:10:47;;;;;;;0.95;0.82;;;12.50;85.30;;;;;;5026188;28;20033;-79
2022/11/11 10:13:19;;;;;;;1.00;0.90;;;12.50;85.20;;;;;;5039408;28;20058;-79
2022/11/11 10:16:04;;;;;;;;;;;12.60;85.00;;;;;;5041291;28;20049;-80
2022/11/11 10:19:11;;;;;;;1.67;1.52;;;12.70;84.20;;;;;;5048021;28;19916;-79
2022/11/11 10:21:47;;;;;;;1.40;1.20;;;12.70;83.30;;;;;;5047046;28;20029;-79
2022/11/11 10:24:25;;;;;;;1.15;1.05;;;13.00;83.30;;;;;;5034022;28;20058;-79
2022/11/11 10:26:51;;;;;;;1.27;1.17;;;13.20;82.50;;;;;;5028446;28;20486;-80
2022/11/11 10:29:18;;;;;;;1.20;1.02;;;13.40;82.20;;;;;;5009697;28;20034;-80
2022/11/11 10:31:51;;;;;;;3.88;1.40;;;13.60;81.20;;;;;;5027078;28;20032;-80
2022/11/11 10:34:18;;;;;;;2.35;1.48;;;13.50;79.30;;;;;;5020257;28;20026;-78
2022/11/11 10:36:55;;;;;;;2.08;1.70;;;13.40;79.70;;;;;;5047363;28;20026;-80
2022/11/11 10:39:47;;;;;;;3.00;1.90;;;13.50;79.60;;;;;;5048689;28;20026;-80
2022/11/11 10:42:16;;;;;;;1.67;1.42;;;13.50;78.70;;;;;;5009073;28;20037;-80
2022/11/11 10:44:43;;;;;;;3.28;1.50;;;13.30;78.20;;;;;;5017695;28;20121;-77
2022/11/11 10:47:26;;;;;;;1.52;0.90;;;13.30;78.80;;;;;;5026079;28;20032;-79
2022/11/11 10:49:58;;;;;;;1.10;1.00;;;13.50;79.30;;;;;;5025457;28;20022;-79
2022/11/11 10:53:01;;;;;;;2.80;1.65;;;13.50;79.20;;;;;;5010119;28;20467;-80
2022/11/11 10:55:37;;;;;;;2.33;1.30;;;13.70;78.30;;;;;;5008865;28;20030;-80
2022/11/11 10:58:22;;;;;;;1.42;1.33;;;13.50;77.30;;;;;;5028161;28;20108;-80
2022/11/11 11:00:51;;;;;;;1.98;1.33;;;13.30;78.00;;;;;;5028570;28;20022;-80
2022/11/11 11:03:22;;;;;;;1.65;1.30;;;13.20;78.60;;;;;;5030819;28;20032;-80
2022/11/11 11:06:05;;;;;;;2.92;1.40;;;13.20;79.10;;;;;;5023639;28;20041;-79
2022/11/11 11:08:37;;;;;;;3.05;1.80;;;13.30;78.60;;;;;;5029870;28;20447;-79
2022/11/11 11:11:34;;;;;;;5.20;1.80;;;13.30;78.20;;;;;;5028236;28;20029;-79
2022/11/11 11:14:05;;;;;;;1.25;1.15;;;13.20;78.40;;;;;;5009648;28;20026;-79
2022/11/11 11:16:38;;;;;;;4.97;1.77;;;13.20;78.40;;;;;;5023975;28;20033;-78
2022/11/11 11:19:15;;;;;;;2.78;1.83;;;13.20;78.60;;;;;;5022954;28;20030;-79
2022/11/11 11:21:55;;;;;;;6.75;2.17;;;13.40;78.50;;;;;;5011465;28;20029;-79
2022/11/11 11:24:25;;;;;;;7.93;2.00;;;13.50;77.60;;;;;;5028962;28;20052;-79
2022/11/11 11:26:53;;;;;;;3.08;1.60;;;13.70;76.50;;;;;;5046970;28;20366;-79
2022/11/11 11:29:27;;;;;;;5.88;1.50;;;13.70;76.00;;;;;;5048681;28;20030;-79
2022/11/11 11:31:53;;;;;;;6.50;2.85;;;13.80;76.80;;;;;;5048934;28;20018;-79
2022/11/11 11:34:19;;;;;;;7.78;3.25;;;13.80;79.20;;;;;;5020684;28;20033;-79
2022/11/11 11:37:01;;;;;;;7.50;3.72;;;13.80;80.80;;;;;;5025258;28;20043;-79
2022/11/11 11:39:37;;;;;;;15.15;3.65;;;13.90;81.20;;;;;;5048979;28;20044;-79
2022/11/11 11:42:04;;;;;;;9.65;2.75;;;14.00;81.20;;;;;;5030668;28;20087;-80
2022/11/11 11:44:35;;;;;;;3.38;2.28;;;14.00;80.80;;;;;;5030918;28;20092;-79
2022/11/11 11:47:00;;;;;;;7.45;2.85;;;13.90;81.40;;;;;;5016639;28;20049;-80
2022/11/11 11:49:40;;;;;;;2.88;2.20;;;13.70;81.90;;;;;;5027850;28;20029;-79
2022/11/11 11:52:17;;;;;;;6.97;2.47;;;13.60;82.70;;;;;;5029926;28;20583;-79
2022/11/11 11:54:52;;;;;;;6.45;3.13;;;13.50;82.70;;;;;;5030552;28;20034;-79
2022/11/11 11:57:45;;;;;;;4.53;3.10;;;13.30;83.70;;;;;;5031785;28;20065;-79
2022/11/11 12:00:34;;;;;;;4.57;2.70;;;13.20;84.60;;;;;;5031233;28;20057;-79
2022/11/11 12:03:17;;;;;;;4.72;3.03;;;13.20;85.10;;;;;;5014596;28;20089;-80
2022/11/11 12:06:12;;;;;;;10.48;3.33;;;13.20;85.50;;;;;;5051474;28;20021;-78
2022/11/11 12:08:56;;;;;;;7.85;3.08;;;13.10;86.60;;;;;;5013632;28;20026;-78
2022/11/11 12:11:31;;;;;;;6.88;3.15;;;13.00;86.90;;;;;;5050978;28;20032;-79
2022/11/11 12:14:15;;;;;;;4.85;2.70;;;13.00;88.00;;;;;;5033247;28;20033;-78
2022/11/11 12:16:56;;;;;;;6.25;2.63;;;13.00;88.60;;;;;;5051310;28;20027;-78
2022/11/11 12:19:37;;;;;;;6.82;3.08;;;13.00;88.60;;;;;;5050810;28;20018;-79
2022/11/11 12:22:19;;;;;;;6.20;2.60;;;13.00;88.90;;;;;;5051377;28;20052;-80
2022/11/11 12:24:54;;;;;;;4.05;3.00;;;13.10;89.40;;;;;;5052349;28;20013;-79
2022/11/11 12:27:45;;;;;;;8.85;3.50;;;13.10;89.60;;;;;;5048334;28;20026;-80
2022/11/11 12:30:27;;;;;;;5.78;4.10;;;13.10;89.90;;;;;;5032698;28;20029;-80
2022/11/11 12:33:03;;;;;;;4.97;3.00;;;13.10;90.30;;;;;;5015396;28;20026;-80
2022/11/11 12:36:05;;;;;;;6.65;2.88;;;13.20;90.20;;;;;;5022362;28;20265;-79
2022/11/11 12:38:59;;;;;;;6.28;3.40;;;13.40;90.10;;;;;;5030337;28;20403;-81
2022/11/11 12:41:49;;;;;;;4.88;2.60;;;13.50;89.60;;;;;;4996081;28;20038;-79
2022/11/11 12:44:16;;;;;;;6.25;2.70;;;13.60;89.70;;;;;;5022832;28;20067;-78
2022/11/11 12:47:03;;;;;;;4.88;2.60;;;13.80;88.90;;;;;;5035708;28;20045;-79
2022/11/11 12:49:47;;;;;;;3.22;2.20;;;13.80;87.80;;;;;;5031406;28;20038;-79
2022/11/11 12:52:35;;;;;;;6.68;3.28;;;13.90;88.10;;;;;;5049724;28;20026;-79
2022/11/11 12:55:16;;;;;;;8.07;3.15;;;13.80;87.30;;;;;;5035486;28;20028;-80
2022/11/11 12:58:01;;;;;;;7.40;2.70;;;13.60;87.70;;;;;;5052183;28;20036;-78
2022/11/11 13:00:26;;;;;;;4.60;2.58;;;13.30;89.10;;;;;;5038795;28;20021;-80
2022/11/11 13:03:25;;;;;;;5.07;3.30;;;13.10;89.30;;;;;;5050362;28;20028;-80
2022/11/11 13:06:19;;;;;;;4.78;2.85;;;12.90;90.30;;;;;;5020541;28;20037;-80
2022/11/11 13:09:12;;;;;;;4.30;2.72;;;12.70;90.80;;;;;;5032270;28;20041;-80
2022/11/11 13:12:09;;;;;;;4.63;2.90;;;12.70;91.10;;;;;;5020808;28;20029;-78
2022/11/11 13:14:58;;;;;;;3.38;2.80;;;12.70;90.90;;;;;;5033443;28;20094;-80
2022/11/11 13:17:24;;;;;;;5.60;3.08;;;12.60;91.30;;;;;;5018802;28;20398;-80
2022/11/11 13:19:58;;;;;;;3.22;2.72;;;12.50;91.30;;;;;;5029321;28;20048;-80
2022/11/11 13:22:31;;;;;;;5.97;3.50;;;12.30;91.70;;;;;;5031489;28;20022;-79
2022/11/11 13:25:01;;;;;;;7.05;3.53;;;12.20;92.10;;;;;;5032001;28;20180;-82
2022/11/11 13:28:04;;;;;;;4.72;2.90;;;12.20;92.50;;;;;;5030612;28;20026;-80
2022/11/11 13:30:29;;;;;;;;;;;12.00;92.70;;;;;;5025201;28;20026;-79
2022/11/11 13:33:23;;;;;;;5.25;3.20;;;11.90;93.00;;;;;;5027198;28;20322;-80
2022/11/11 13:35:57;;;;;;;5.28;3.13;;;11.90;93.30;;;;;;5016823;28;20294;-79
2022/11/11 13:38:47;;;;;;;3.83;2.83;;;11.80;93.50;;;;;;5009737;28;20105;-80
2022/11/11 13:41:21;;;;;;;3.58;2.78;;;11.80;93.70;;;;;;5008247;28;20030;-80
2022/11/11 13:43:50;;;;;;;4.18;2.67;;;11.80;93.50;;;;;;5010133;28;20018;-81
2022/11/11 13:46:37;;;;;;;3.30;2.50;;;11.80;93.60;;;;;;5009990;28;20018;-79
2022/11/11 13:49:07;;;;;;;2.60;2.28;;;11.80;93.60;;;;;;5010036;28;20021;-79
2022/11/11 13:51:42;;;;;;;3.05;1.92;;;11.70;93.50;;;;;;5028029;28;20025;-81
2022/11/11 13:54:30;;;;;;;4.80;2.60;;;11.70;93.40;;;;;;5051116;28;20047;-79
2022/11/11 13:57:04;;;;;;;5.00;2.35;;;11.70;93.30;;;;;;5054401;28;20068;-79
2022/11/11 13:59:33;;;;;;;3.60;2.38;;;11.60;93.30;;;;;;5054176;28;20017;-80
2022/11/11 14:02:18;;;;;;;4.13;2.60;;;11.60;93.20;;;;;;5016732;28;20033;-81
2022/11/11 14:05:02;;;;;;;3.83;2.30;;;11.60;93.20;;;;;;5007481;28;20029;-79
2022/11/11 14:07:44;;;;;;;5.28;2.30;;;11.60;93.20;;;;;;5024682;28;20026;-80
2022/11/11 14:10:15;;;;;;;2.28;2.08;;;11.60;93.00;;;;;;5026534;28;20073;-81
2022/11/11 14:12:52;;;;;;;4.32;3.40;;;11.70;93.20;;;;;;5057062;22;20575;-79
2022/11/11 14:15:40;;;;;;;5.60;2.60;;;11.70;93.30;;;;;;4988508;28;20053;-79
2022/11/11 14:18:18;;;;;;;5.45;2.60;;;11.80;93.40;;;;;;4995711;28;20051;-78
2022/11/11 14:20:51;;;;;;;6.28;2.10;;;11.80;93.60;;;;;;4995758;28;20230;-78
2022/11/11 14:23:17;;;;;;;8.77;3.38;;;11.80;93.80;;;;;;4972468;28;20043;-78
2022/11/11 14:25:44;;;;;;;2.95;2.25;;;11.80;93.90;;;;;;4959727;29;20031;-79
2022/11/11 14:28:26;;;;;;;5.20;2.83;;;11.80;93.90;;;;;;4975372;29;20084;-78
2022/11/11 14:30:52;;;;;;;3.30;2.00;;;11.80;94.10;;;;;;4961718;28;20062;-79